Time;durP1;ratioP1;P1;durP2;ratioP2;P2;SDS_P1;SDS_P2;PMS_P1;PMS_P2;Temp;Humidity;BMP_temperature;BMP_pressure;BME280_temperature;BME280_humidity;BME280_pressure;Samples;Min_cycle;Max_cycle;Signal;HPM_P1;HPM_P2
2024/01/23 00:01:14;;;;;;;45.37;12.43;;;;;;;;;;5036342;28;20645;-65
2024/01/23 00:03:40;;;;;;;17.33;5.10;;;;;;;;;;5018140;28;20209;-66
2024/01/23 00:06:06;;;;;;;54.50;15.07;;;;;;;;;;5036295;28;20596;-65
2024/01/23 00:08:32;;;;;;;42.40;10.67;;;;;;;;;;5036254;28;20192;-65
2024/01/23 00:10:58;;;;;;;27.87;8.00;;;;;;;;;;5036634;28;20780;-64
2024/01/23 00:13:24;;;;;;;23.07;6.27;;;;;;;;;;5036055;28;20207;-64
2024/01/23 00:15:50;;;;;;;15.73;4.33;;;;;;;;;;5036368;28;20567;-65
2024/01/23 00:18:16;;;;;;;18.00;4.40;;;;;;;;;;5036437;28;20254;-63
2024/01/23 00:20:42;;;;;;;12.43;4.53;;;;;;;;;;5018362;28;20183;-64
2024/01/23 00:23:08;;;;;;;12.23;4.03;;;;;;;;;;5035901;28;20182;-65
2024/01/23 00:25:34;;;;;;;17.63;4.10;;;;;;;;;;5037551;23;20235;-71
2024/01/23 00:28:00;;;;;;;17.50;3.30;;;;;;;;;;5016773;28;20168;-70
2024/01/23 00:30:26;;;;;;;16.67;3.43;;;;;;;;;;5015811;28;20187;-69
2024/01/23 00:32:52;;;;;;;20.00;4.23;;;;;;;;;;5016044;28;20587;-70
2024/01/23 00:35:18;;;;;;;19.40;4.33;;;;;;;;;;5016003;28;20239;-70
2024/01/23 00:37:44;;;;;;;16.80;3.67;;;;;;;;;;5016202;28;20211;-70
2024/01/23 00:40:11;;;;;;;17.40;4.27;;;;;;;;;;5016532;28;20180;-70
2024/01/23 00:42:37;;;;;;;13.53;3.77;;;;;;;;;;5016819;28;20612;-70
2024/01/23 00:45:03;;;;;;;20.47;3.97;;;;;;;;;;5020719;28;20287;-70
2024/01/23 00:47:30;;;;;;;12.90;3.80;;;;;;;;;;5025420;28;20199;-72
2024/01/23 00:49:56;;;;;;;11.67;3.40;;;;;;;;;;5024202;28;20187;-70
2024/01/23 00:52:22;;;;;;;23.70;6.20;;;;;;;;;;5023741;28;20275;-70
2024/01/23 00:54:48;;;;;;;14.60;3.30;;;;;;;;;;5019368;28;20215;-70
2024/01/23 00:57:14;;;;;;;14.60;3.87;;;;;;;;;;5015511;28;20183;-70
2024/01/23 00:59:40;;;;;;;16.83;3.93;;;;;;;;;;5016359;28;20267;-70
2024/01/23 01:02:06;;;;;;;16.90;3.97;;;;;;;;;;5016128;28;20211;-70
2024/01/23 01:04:32;;;;;;;18.37;3.13;;;;;;;;;;5015897;28;20202;-70
2024/01/23 01:06:58;;;;;;;17.73;4.13;;;;;;;;;;5018019;28;20172;-70
2024/01/23 01:09:25;;;;;;;19.07;3.50;;;;;;;;;;5028006;28;20183;-69
2024/01/23 01:11:51;;;;;;;10.50;3.53;;;;;;;;;;5025319;28;20184;-71
2024/01/23 01:14:17;;;;;;;17.67;3.33;;;;;;;;;;5018929;28;20650;-70
2024/01/23 01:16:43;;;;;;;14.93;3.83;;;;;;;;;;5020519;28;20203;-69
2024/01/23 01:19:09;;;;;;;12.43;3.03;;;;;;;;;;5017800;28;20558;-70
2024/01/23 01:21:35;;;;;;;15.33;3.60;;;;;;;;;;5017207;28;20184;-70
2024/01/23 01:24:01;;;;;;;14.13;4.57;;;;;;;;;;5015859;28;20286;-72
2024/01/23 01:26:27;;;;;;;21.20;3.83;;;;;;;;;;5016214;28;20250;-72
2024/01/23 01:28:53;;;;;;;11.57;3.20;;;;;;;;;;5014759;28;20180;-71
2024/01/23 01:31:19;;;;;;;11.67;3.40;;;;;;;;;;5014555;28;20274;-71
2024/01/23 01:33:45;;;;;;;17.23;4.10;;;;;;;;;;5014239;28;20195;-71
2024/01/23 01:36:11;;;;;;;17.23;3.70;;;;;;;;;;5015137;28;20204;-71
2024/01/23 01:38:36;;;;;;;10.67;2.60;;;;;;;;;;5014910;28;20180;-71
2024/01/23 01:41:03;;;;;;;15.80;4.00;;;;;;;;;;5014018;28;20187;-71
2024/01/23 01:43:30;;;;;;;17.87;3.83;;;;;;;;;;5015510;28;20172;-71
2024/01/23 01:46:14;;;;;;;17.93;3.87;;;;;;;;;;5015352;28;20230;-71
2024/01/23 01:48:41;;;;;;;12.30;3.20;;;;;;;;;;5013819;28;20182;-71
2024/01/23 01:51:07;;;;;;;17.33;4.63;;;;;;;;;;5013663;28;20594;-71
2024/01/23 01:53:33;;;;;;;15.23;4.00;;;;;;;;;;5015184;28;20658;-71
2024/01/23 01:55:59;;;;;;;15.13;3.37;;;;;;;;;;5015042;28;20620;-71
2024/01/23 01:58:28;;;;;;;11.07;3.60;;;;;;;;;;5013414;28;20226;-71
2024/01/23 02:00:55;;;;;;;19.67;3.47;;;;;;;;;;5015044;28;20267;-71
2024/01/23 02:03:21;;;;;;;14.73;3.57;;;;;;;;;;5013237;28;20179;-71
2024/01/23 02:05:47;;;;;;;17.50;3.53;;;;;;;;;;5014399;28;20254;-71
2024/01/23 02:08:14;;;;;;;15.53;3.63;;;;;;;;;;5013512;28;20215;-71
2024/01/23 02:10:40;;;;;;;13.37;3.50;;;;;;;;;;5013262;28;20213;-71
2024/01/23 02:13:06;;;;;;;8.50;2.93;;;;;;;;;;5013253;28;20211;-71
2024/01/23 02:15:32;;;;;;;17.20;3.73;;;;;;;;;;5013328;28;20203;-71
2024/01/23 02:17:58;;;;;;;16.07;4.03;;;;;;;;;;5013361;28;20211;-71
2024/01/23 02:20:24;;;;;;;17.00;3.87;;;;;;;;;;5014698;28;20195;-71
2024/01/23 02:22:50;;;;;;;14.00;3.43;;;;;;;;;;5014695;28;20179;-71
2024/01/23 02:25:16;;;;;;;16.27;3.53;;;;;;;;;;5013381;28;20309;-71
2024/01/23 02:27:42;;;;;;;10.57;3.23;;;;;;;;;;5013776;28;20172;-71
2024/01/23 02:30:08;;;;;;;13.67;3.27;;;;;;;;;;5015442;28;20277;-71
2024/01/23 02:32:34;;;;;;;12.70;2.43;;;;;;;;;;5016018;28;20194;-71
2024/01/23 02:35:00;;;;;;;11.33;2.73;;;;;;;;;;5022768;28;20290;-71
2024/01/23 02:37:26;;;;;;;13.10;3.17;;;;;;;;;;5029393;28;20180;-71
2024/01/23 02:39:53;;;;;;;10.53;2.73;;;;;;;;;;5028219;28;20180;-71
2024/01/23 02:42:18;;;;;;;15.83;3.03;;;;;;;;;;5029818;28;20183;-71
2024/01/23 02:44:47;;;;;;;15.73;3.50;;;;;;;;;;5028884;28;20215;-71
2024/01/23 02:47:13;;;;;;;15.83;3.53;;;;;;;;;;5029499;28;20176;-71
2024/01/23 02:49:39;;;;;;;12.40;3.10;;;;;;;;;;5029147;28;20269;-72
2024/01/23 02:52:05;;;;;;;13.10;3.30;;;;;;;;;;5017230;28;20176;-71
2024/01/23 02:54:32;;;;;;;13.27;3.07;;;;;;;;;;5015169;28;20179;-71
2024/01/23 02:56:57;;;;;;;10.33;2.67;;;;;;;;;;5016429;28;20176;-71
2024/01/23 02:59:23;;;;;;;14.70;3.43;;;;;;;;;;5014297;28;20184;-71
2024/01/23 03:01:49;;;;;;;15.13;3.47;;;;;;;;;;5014547;28;20176;-71
2024/01/23 03:04:15;;;;;;;11.63;3.30;;;;;;;;;;5014273;28;20733;-71
2024/01/23 03:06:41;;;;;;;20.20;3.67;;;;;;;;;;5013000;28;20252;-71
2024/01/23 03:09:10;;;;;;;8.50;3.43;;;;;;;;;;5014155;28;20521;-71
2024/01/23 03:11:36;;;;;;;18.90;2.97;;;;;;;;;;5013555;28;20180;-71
2024/01/23 03:14:03;;;;;;;10.03;3.27;;;;;;;;;;5014212;28;20184;-71
2024/01/23 03:16:29;;;;;;;14.07;3.40;;;;;;;;;;5015101;28;20199;-71
2024/01/23 03:18:55;;;;;;;12.53;3.30;;;;;;;;;;5015275;28;20184;-71
2024/01/23 03:21:21;;;;;;;10.97;3.63;;;;;;;;;;5013858;28;20190;-71
2024/01/23 03:23:47;;;;;;;20.53;3.87;;;;;;;;;;5015106;28;20203;-71
2024/01/23 03:26:13;;;;;;;13.30;4.03;;;;;;;;;;5013332;28;20215;-71
2024/01/23 03:28:39;;;;;;;6.83;2.70;;;;;;;;;;5014286;28;20176;-71
2024/01/23 03:31:05;;;;;;;15.80;3.37;;;;;;;;;;5014457;28;20184;-71
2024/01/23 03:33:33;;;;;;;13.63;3.00;;;;;;;;;;5013149;28;20561;-71
2024/01/23 03:35:59;;;;;;;13.53;2.80;;;;;;;;;;5013088;28;20203;-71
2024/01/23 03:38:25;;;;;;;18.13;3.70;;;;;;;;;;5014338;28;20176;-71
2024/01/23 03:40:51;;;;;;;10.53;3.10;;;;;;;;;;5014522;28;20180;-71
2024/01/23 03:43:17;;;;;;;16.37;3.30;;;;;;;;;;5012848;28;20559;-71
2024/01/23 03:45:43;;;;;;;12.53;3.20;;;;;;;;;;5013141;28;20223;-71
2024/01/23 03:48:10;;;;;;;12.33;3.40;;;;;;;;;;5014999;28;20176;-71
2024/01/23 03:50:36;;;;;;;11.87;3.93;;;;;;;;;;5015280;28;20654;-71
2024/01/23 03:53:02;;;;;;;11.00;3.10;;;;;;;;;;5017665;28;20183;-71
2024/01/23 03:55:28;;;;;;;10.50;2.60;;;;;;;;;;5017448;28;20220;-71
2024/01/23 03:57:54;;;;;;;17.10;3.57;;;;;;;;;;5016076;28;20572;-71
2024/01/23 04:00:20;;;;;;;12.87;3.90;;;;;;;;;;5017658;28;20696;-71
2024/01/23 04:02:46;;;;;;;20.30;3.77;;;;;;;;;;5017027;28;20230;-71
2024/01/23 04:05:12;;;;;;;17.97;3.73;;;;;;;;;;5016957;28;20219;-71
2024/01/23 04:07:38;;;;;;;13.63;3.43;;;;;;;;;;5016929;28;20226;-71
2024/01/23 04:10:04;;;;;;;14.53;3.47;;;;;;;;;;5016778;28;20195;-71
2024/01/23 04:12:30;;;;;;;19.33;3.57;;;;;;;;;;5018097;28;20184;-71
2024/01/23 04:14:58;;;;;;;14.53;3.93;;;;;;;;;;5024552;28;20278;-71
2024/01/23 04:17:24;;;;;;;12.73;3.80;;;;;;;;;;5016839;28;20608;-71
2024/01/23 04:19:50;;;;;;;13.23;3.20;;;;;;;;;;5017297;28;20185;-71
2024/01/23 04:22:16;;;;;;;17.53;3.53;;;;;;;;;;5015259;28;20550;-71
2024/01/23 04:24:42;;;;;;;19.63;4.77;;;;;;;;;;5016287;28;20213;-71
2024/01/23 04:27:08;;;;;;;13.47;3.03;;;;;;;;;;5016517;28;20171;-71
2024/01/23 04:29:33;;;;;;;11.13;3.23;;;;;;;;;;5016256;28;20339;-71
2024/01/23 04:31:59;;;;;;;14.13;3.33;;;;;;;;;;5016374;28;20180;-71
2024/01/23 04:34:25;;;;;;;12.10;3.33;;;;;;;;;;5016679;28;20180;-71
2024/01/23 04:36:51;;;;;;;11.27;3.80;;;;;;;;;;5022325;28;20251;-71
2024/01/23 04:39:17;;;;;;;20.23;4.53;;;;;;;;;;5015394;28;20191;-71
2024/01/23 04:41:43;;;;;;;20.43;4.03;;;;;;;;;;5016992;28;20195;-71
2024/01/23 04:44:09;;;;;;;19.20;4.77;;;;;;;;;;5016014;28;20290;-71
2024/01/23 04:46:36;;;;;;;15.63;3.17;;;;;;;;;;5016536;28;20677;-71
2024/01/23 04:49:02;;;;;;;16.10;3.93;;;;;;;;;;5016540;28;20239;-71
2024/01/23 04:51:29;;;;;;;12.33;3.20;;;;;;;;;;5016385;28;20226;-71
2024/01/23 04:53:55;;;;;;;19.10;3.37;;;;;;;;;;5016669;28;20187;-71
2024/01/23 04:56:21;;;;;;;15.43;4.27;;;;;;;;;;5015365;28;20686;-71
2024/01/23 04:58:48;;;;;;;12.73;3.20;;;;;;;;;;5016505;28;20187;-71
2024/01/23 05:01:14;;;;;;;13.03;3.83;;;;;;;;;;5016804;28;20274;-71
2024/01/23 05:03:40;;;;;;;23.40;4.70;;;;;;;;;;5017169;28;20199;-71
2024/01/23 05:06:06;;;;;;;18.47;3.70;;;;;;;;;;5016802;28;20625;-71
2024/01/23 05:08:32;;;;;;;17.43;4.10;;;;;;;;;;5015501;28;20180;-71
2024/01/23 05:10:58;;;;;;;18.13;3.80;;;;;;;;;;5015848;28;20209;-71
2024/01/23 05:13:24;;;;;;;19.70;4.13;;;;;;;;;;5014640;28;20225;-71
2024/01/23 05:15:50;;;;;;;17.63;4.07;;;;;;;;;;5015956;28;20203;-70
2024/01/23 05:18:16;;;;;;;21.67;4.30;;;;;;;;;;5014501;28;20180;-71
2024/01/23 05:20:42;;;;;;;14.77;3.87;;;;;;;;;;5015772;28;20168;-71
2024/01/23 05:23:08;;;;;;;13.27;3.13;;;;;;;;;;5015936;28;20238;-71
2024/01/23 05:25:35;;;;;;;20.10;4.13;;;;;;;;;;5016073;28;20720;-71
2024/01/23 05:28:01;;;;;;;17.60;4.20;;;;;;;;;;5016698;28;20266;-71
2024/01/23 05:30:27;;;;;;;17.37;3.23;;;;;;;;;;5016440;28;20212;-71
2024/01/23 05:32:53;;;;;;;19.40;3.87;;;;;;;;;;5015936;28;20222;-71
2024/01/23 05:35:19;;;;;;;17.13;4.73;;;;;;;;;;5016253;28;20287;-70
2024/01/23 05:37:45;;;;;;;21.83;3.97;;;;;;;;;;5016621;28;20180;-71
2024/01/23 05:40:11;;;;;;;16.80;4.00;;;;;;;;;;5015821;28;20683;-71
2024/01/23 05:42:37;;;;;;;18.30;4.73;;;;;;;;;;5015531;28;20186;-71
2024/01/23 05:45:03;;;;;;;23.57;5.07;;;;;;;;;;5015403;28;20222;-70
2024/01/23 05:47:30;;;;;;;14.27;4.00;;;;;;;;;;5015731;28;20590;-71
2024/01/23 05:49:56;;;;;;;18.63;3.67;;;;;;;;;;5015985;28;20622;-71
2024/01/23 05:52:22;;;;;;;15.97;3.63;;;;;;;;;;5016303;28;20176;-71
2024/01/23 05:54:48;;;;;;;16.23;5.20;;;;;;;;;;5015912;28;20649;-71
2024/01/23 05:57:14;;;;;;;12.33;3.93;;;;;;;;;;5015270;28;20183;-71
2024/01/23 05:59:40;;;;;;;16.07;4.07;;;;;;;;;;5015189;28;20172;-70
2024/01/23 06:02:07;;;;;;;11.77;3.10;;;;;;;;;;5015688;28;20716;-71
2024/01/23 06:04:33;;;;;;;18.30;4.13;;;;;;;;;;5015182;28;20235;-71
2024/01/23 06:06:59;;;;;;;13.53;3.60;;;;;;;;;;5015078;28;20552;-71
2024/01/23 06:09:25;;;;;;;17.60;3.60;;;;;;;;;;5015300;28;20179;-71
2024/01/23 06:11:52;;;;;;;17.43;5.17;;;;;;;;;;5015352;28;20175;-71
2024/01/23 06:14:18;;;;;;;20.67;3.30;;;;;;;;;;5015394;28;20176;-71
2024/01/23 06:16:44;;;;;;;13.57;3.83;;;;;;;;;;5015340;28;20204;-71
2024/01/23 06:19:10;;;;;;;24.93;4.73;;;;;;;;;;5015672;28;20176;-71
2024/01/23 06:21:36;;;;;;;18.40;3.97;;;;;;;;;;5015417;28;20677;-71
2024/01/23 06:24:02;;;;;;;22.70;4.60;;;;;;;;;;5015404;28;20200;-71
2024/01/23 06:26:28;;;;;;;25.33;4.83;;;;;;;;;;5013667;28;20215;-71
2024/01/23 06:28:54;;;;;;;17.40;4.10;;;;;;;;;;5039939;23;20681;-66
2024/01/23 06:31:25;;;;;;;18.23;3.63;;;;;;;;;;5015308;28;20637;-66
2024/01/23 06:33:51;;;;;;;14.53;3.83;;;;;;;;;;5015450;28;20159;-68
2024/01/23 06:36:17;;;;;;;16.20;3.90;;;;;;;;;;5015189;28;20529;-67
2024/01/23 06:38:44;;;;;;;24.23;4.30;;;;;;;;;;4997631;28;20206;-67
2024/01/23 06:41:09;;;;;;;13.60;3.47;;;;;;;;;;4997394;28;20191;-67
2024/01/23 06:43:35;;;;;;;18.23;4.43;;;;;;;;;;4997464;28;20279;-66
2024/01/23 06:46:02;;;;;;;19.20;4.23;;;;;;;;;;4997083;28;20176;-67
2024/01/23 06:48:28;;;;;;;21.13;4.10;;;;;;;;;;4997349;28;20210;-67
2024/01/23 06:50:54;;;;;;;18.80;4.13;;;;;;;;;;4997477;28;20564;-67
2024/01/23 06:53:20;;;;;;;20.13;4.03;;;;;;;;;;5015585;28;20184;-68
2024/01/23 06:55:46;;;;;;;17.80;4.97;;;;;;;;;;4997478;28;20617;-67
2024/01/23 06:58:12;;;;;;;14.60;4.10;;;;;;;;;;5014813;28;20199;-67
2024/01/23 07:00:38;;;;;;;19.30;4.27;;;;;;;;;;4997251;28;20254;-66
2024/01/23 07:03:04;;;;;;;18.37;4.47;;;;;;;;;;5014394;28;20186;-68
2024/01/23 07:05:30;;;;;;;20.30;4.77;;;;;;;;;;5014623;28;20242;-68
2024/01/23 07:07:56;;;;;;;18.37;4.30;;;;;;;;;;5014425;28;20203;-68
2024/01/23 07:10:22;;;;;;;16.47;4.13;;;;;;;;;;4997289;28;20176;-68
2024/01/23 07:12:48;;;;;;;17.70;3.60;;;;;;;;;;5015019;28;20187;-67
2024/01/23 07:15:14;;;;;;;17.07;4.73;;;;;;;;;;5014799;28;20237;-68
2024/01/23 07:17:40;;;;;;;19.57;4.43;;;;;;;;;;5014313;28;20216;-68
2024/01/23 07:20:09;;;;;;;20.57;4.37;;;;;;;;;;5015252;28;20188;-67
2024/01/23 07:22:35;;;;;;;20.27;3.93;;;;;;;;;;4999522;28;20175;-68
2024/01/23 07:25:04;;;;;;;19.00;4.17;;;;;;;;;;5018654;28;20214;-67
2024/01/23 07:27:30;;;;;;;18.10;4.00;;;;;;;;;;5018459;28;20180;-66
2024/01/23 07:29:56;;;;;;;18.50;4.43;;;;;;;;;;5017955;28;20591;-68
2024/01/23 07:32:22;;;;;;;18.83;4.53;;;;;;;;;;5018064;28;20271;-68
2024/01/23 07:34:48;;;;;;;18.23;4.10;;;;;;;;;;5000660;28;20250;-67
2024/01/23 07:37:15;;;;;;;14.20;3.87;;;;;;;;;;5018243;28;20226;-68
2024/01/23 07:39:41;;;;;;;19.30;4.47;;;;;;;;;;5018130;28;20206;-67
2024/01/23 07:42:07;;;;;;;21.83;4.90;;;;;;;;;;5000175;28;20179;-68
2024/01/23 07:44:38;;;;;;;18.93;4.33;;;;;;;;;;5001003;28;20588;-67
2024/01/23 07:47:04;;;;;;;19.07;4.53;;;;;;;;;;5000536;28;20279;-69
2024/01/23 07:49:30;;;;;;;21.30;4.30;;;;;;;;;;5017702;28;20204;-68
2024/01/23 07:51:56;;;;;;;22.67;3.97;;;;;;;;;;4999887;28;20210;-68
2024/01/23 07:54:22;;;;;;;21.87;4.17;;;;;;;;;;5018617;28;20180;-68
2024/01/23 07:56:48;;;;;;;21.17;5.17;;;;;;;;;;5017850;28;20180;-67
2024/01/23 07:59:14;;;;;;;14.73;3.40;;;;;;;;;;5017852;28;20200;-67
2024/01/23 08:01:40;;;;;;;15.37;4.43;;;;;;;;;;5017113;28;20203;-67
2024/01/23 08:04:06;;;;;;;18.70;3.83;;;;;;;;;;5018157;28;20218;-68
2024/01/23 08:06:31;;;;;;;20.00;4.17;;;;;;;;;;5005887;28;20214;-67
2024/01/23 08:08:57;;;;;;;21.77;4.07;;;;;;;;;;5032961;28;20196;-67
2024/01/23 08:11:23;;;;;;;17.30;4.10;;;;;;;;;;5034283;28;20247;-66
2024/01/23 08:13:49;;;;;;;18.80;4.97;;;;;;;;;;5034273;28;20184;-66
2024/01/23 08:16:16;;;;;;;30.43;5.13;;;;;;;;;;5025250;28;20239;-68
2024/01/23 08:18:42;;;;;;;19.30;3.83;;;;;;;;;;5001892;28;20204;-66
2024/01/23 08:21:09;;;;;;;20.43;4.40;;;;;;;;;;5019339;28;20172;-68
2024/01/23 08:23:35;;;;;;;16.90;4.27;;;;;;;;;;5018505;28;20176;-66
2024/01/23 08:26:03;;;;;;;17.57;4.20;;;;;;;;;;5019157;28;20180;-68
2024/01/23 08:28:29;;;;;;;16.50;4.40;;;;;;;;;;5017648;28;20215;-66
2024/01/23 08:30:56;;;;;;;19.80;4.10;;;;;;;;;;5017946;28;20183;-67
2024/01/23 08:33:22;;;;;;;23.07;4.33;;;;;;;;;;5017121;28;20226;-67
2024/01/23 08:35:48;;;;;;;15.83;3.73;;;;;;;;;;5017378;28;20184;-67
2024/01/23 08:38:15;;;;;;;14.90;3.47;;;;;;;;;;5017004;28;20270;-67
2024/01/23 08:40:42;;;;;;;18.50;3.93;;;;;;;;;;5017077;28;20226;-68
2024/01/23 08:43:08;;;;;;;22.60;3.70;;;;;;;;;;4999024;28;20191;-68
2024/01/23 08:45:34;;;;;;;17.87;4.87;;;;;;;;;;5016529;28;20199;-67
2024/01/23 08:48:00;;;;;;;16.07;4.70;;;;;;;;;;5016400;28;20547;-68
2024/01/23 08:50:26;;;;;;;17.50;3.83;;;;;;;;;;5016937;28;20202;-68
2024/01/23 08:52:52;;;;;;;17.50;3.60;;;;;;;;;;4998890;28;20189;-67
2024/01/23 08:55:18;;;;;;;20.53;4.23;;;;;;;;;;4998570;28;20191;-67
2024/01/23 08:57:43;;;;;;;13.83;3.70;;;;;;;;;;4998497;28;20187;-67
2024/01/23 09:00:11;;;;;;;20.17;3.60;;;;;;;;;;4998702;28;20301;-67
2024/01/23 09:02:38;;;;;;;21.37;4.13;;;;;;;;;;4998996;28;20690;-66
2024/01/23 09:05:04;;;;;;;18.97;3.90;;;;;;;;;;5016402;28;20210;-69
2024/01/23 09:07:30;;;;;;;22.80;4.23;;;;;;;;;;5016835;28;20180;-68
2024/01/23 09:09:56;;;;;;;20.83;4.50;;;;;;;;;;5016750;28;20207;-69
2024/01/23 09:12:22;;;;;;;11.03;3.13;;;;;;;;;;5016895;28;20178;-67
2024/01/23 09:14:48;;;;;;;20.20;3.47;;;;;;;;;;4998784;28;20187;-66
2024/01/23 09:17:14;;;;;;;23.93;5.07;;;;;;;;;;4998983;28;20188;-67
2024/01/23 09:19:40;;;;;;;20.60;4.40;;;;;;;;;;4998609;28;20693;-67
2024/01/23 09:22:07;;;;;;;16.03;3.73;;;;;;;;;;4998595;28;20245;-67
2024/01/23 09:24:33;;;;;;;20.47;4.00;;;;;;;;;;5016395;28;20318;-66
2024/01/23 09:27:01;;;;;;;16.67;4.47;;;;;;;;;;5016199;28;20198;-67
2024/01/23 09:29:28;;;;;;;12.63;3.80;;;;;;;;;;4998320;28;20231;-67
2024/01/23 09:31:54;;;;;;;16.90;4.40;;;;;;;;;;4998663;28;20234;-68
2024/01/23 09:34:20;;;;;;;15.03;4.03;;;;;;;;;;4998513;28;20183;-67
2024/01/23 09:36:46;;;;;;;21.93;4.90;;;;;;;;;;4998337;28;20187;-67
2024/01/23 09:39:13;;;;;;;20.87;5.20;;;;;;;;;;4998182;28;20209;-68
2024/01/23 09:41:44;;;;;;;17.17;4.93;;;;;;;;;;5015904;28;20187;-68
2024/01/23 09:44:11;;;;;;;17.27;4.60;;;;;;;;;;5015735;28;20565;-66
2024/01/23 09:46:37;;;;;;;20.03;6.07;;;;;;;;;;5016139;28;20765;-67
2024/01/23 09:49:03;;;;;;;21.80;6.33;;;;;;;;;;5016260;28;20203;-66
2024/01/23 09:51:30;;;;;;;21.80;5.03;;;;;;;;;;5015645;28;20180;-67
2024/01/23 09:53:56;;;;;;;18.67;4.73;;;;;;;;;;5015819;28;20184;-68
2024/01/23 09:56:23;;;;;;;18.40;4.90;;;;;;;;;;4997981;28;20279;-68
2024/01/23 09:58:50;;;;;;;20.90;4.43;;;;;;;;;;5015506;28;20678;-67
2024/01/23 10:01:21;;;;;;;18.20;5.97;;;;;;;;;;5016379;28;20184;-67
2024/01/23 10:03:49;;;;;;;18.43;4.33;;;;;;;;;;5015911;28;20192;-67
2024/01/23 10:06:15;;;;;;;17.37;4.20;;;;;;;;;;4998622;28;20176;-68
2024/01/23 10:08:42;;;;;;;19.03;4.70;;;;;;;;;;5016232;28;20200;-67
2024/01/23 10:11:10;;;;;;;26.00;7.20;;;;;;;;;;4998444;28;20187;-67
2024/01/23 10:13:39;;;;;;;20.00;5.87;;;;;;;;;;4998245;28;20186;-67
2024/01/23 10:16:05;;;;;;;26.17;7.03;;;;;;;;;;5015706;28;20259;-67
2024/01/23 10:18:31;;;;;;;25.93;4.97;;;;;;;;;;5016001;28;20317;-67
2024/01/23 10:20:58;;;;;;;17.37;4.73;;;;;;;;;;5015723;28;20176;-65
2024/01/23 10:23:24;;;;;;;20.70;4.50;;;;;;;;;;5017262;28;20190;-67
2024/01/23 10:25:50;;;;;;;20.13;5.33;;;;;;;;;;5015145;28;20670;-65
2024/01/23 10:28:17;;;;;;;15.23;4.07;;;;;;;;;;4997124;28;20582;-67
2024/01/23 10:30:43;;;;;;;24.90;4.67;;;;;;;;;;5015734;28;20171;-66
2024/01/23 10:33:10;;;;;;;27.73;4.27;;;;;;;;;;4998281;28;20180;-67
2024/01/23 10:35:37;;;;;;;15.97;4.37;;;;;;;;;;5015475;28;20542;-67
2024/01/23 10:38:03;;;;;;;18.00;4.60;;;;;;;;;;5015538;28;20199;-66
2024/01/23 10:40:29;;;;;;;20.00;4.57;;;;;;;;;;4997931;28;20191;-68
2024/01/23 10:42:59;;;;;;;24.73;5.83;;;;;;;;;;5015866;28;20259;-66
2024/01/23 10:45:25;;;;;;;19.43;4.63;;;;;;;;;;5014987;28;20290;-68
2024/01/23 10:47:52;;;;;;;22.03;4.23;;;;;;;;;;4997118;28;20234;-67
2024/01/23 10:50:21;;;;;;;13.93;3.83;;;;;;;;;;4997497;28;20279;-65
2024/01/23 10:52:48;;;;;;;17.90;4.53;;;;;;;;;;5015419;28;20176;-64
2024/01/23 10:55:16;;;;;;;16.20;4.27;;;;;;;;;;5014854;28;20182;-66
2024/01/23 10:57:46;;;;;;;14.10;4.50;;;;;;;;;;5014887;28;20238;-66
2024/01/23 11:00:14;;;;;;;18.93;4.30;;;;;;;;;;5015906;28;20256;-66
2024/01/23 11:03:00;;;;;;;16.97;4.37;;;;;;;;;;5014704;28;20180;-66
2024/01/23 11:05:32;;;;;;;20.70;5.50;;;;;;;;;;5015240;28;20227;-67
2024/01/23 11:08:07;;;;;;;21.60;4.50;;;;;;;;;;4997171;28;20238;-67
2024/01/23 11:10:45;;;;;;;11.93;4.30;;;;;;;;;;4997522;28;20167;-65
2024/01/23 11:13:22;;;;;;;21.37;4.90;;;;;;;;;;5015344;28;20630;-67
2024/01/23 11:15:48;;;;;;;20.77;4.70;;;;;;;;;;5014503;28;20182;-66
2024/01/23 11:18:22;;;;;;;18.97;4.33;;;;;;;;;;5014391;28;20204;-68
2024/01/23 11:21:08;;;;;;;23.57;4.90;;;;;;;;;;4996215;28;20233;-66
2024/01/23 11:23:35;;;;;;;16.80;4.30;;;;;;;;;;4995471;28;20188;-68
2024/01/23 11:26:01;;;;;;;23.13;4.03;;;;;;;;;;4996603;28;20235;-66
2024/01/23 11:28:27;;;;;;;20.87;4.93;;;;;;;;;;5014121;28;20212;-66
2024/01/23 11:31:06;;;;;;;20.00;4.53;;;;;;;;;;5014580;28;20183;-69
2024/01/23 11:33:34;;;;;;;20.20;4.17;;;;;;;;;;5014036;28;20175;-67
2024/01/23 11:36:21;;;;;;;21.70;5.77;;;;;;;;;;5013931;28;20187;-65
2024/01/23 11:38:56;;;;;;;21.17;5.50;;;;;;;;;;5014333;28;20310;-70
2024/01/23 11:41:23;;;;;;;25.87;6.20;;;;;;;;;;4996399;28;20179;-65
2024/01/23 11:43:55;;;;;;;15.00;4.63;;;;;;;;;;5013440;28;20180;-67
2024/01/23 11:46:23;;;;;;;19.20;4.50;;;;;;;;;;5013544;28;20168;-66
2024/01/23 11:48:49;;;;;;;21.97;6.13;;;;;;;;;;5013584;28;20575;-66
2024/01/23 11:51:16;;;;;;;20.00;5.40;;;;;;;;;;5013983;28;20238;-67
2024/01/23 11:53:42;;;;;;;25.27;8.40;;;;;;;;;;5013082;28;20168;-67
2024/01/23 11:56:09;;;;;;;16.90;5.53;;;;;;;;;;4995115;28;20650;-67
2024/01/23 11:58:35;;;;;;;28.03;5.47;;;;;;;;;;5014133;28;20196;-66
2024/01/23 12:01:01;;;;;;;20.70;5.00;;;;;;;;;;5014405;28;20585;-69
2024/01/23 12:03:28;;;;;;;18.53;5.20;;;;;;;;;;4995912;28;20176;-67
2024/01/23 12:05:54;;;;;;;28.50;5.43;;;;;;;;;;4995096;28;20222;-67
2024/01/23 12:08:21;;;;;;;14.27;5.53;;;;;;;;;;5013913;28;20196;-65
2024/01/23 12:10:47;;;;;;;20.80;7.00;;;;;;;;;;5016414;28;20183;-67
2024/01/23 12:13:13;;;;;;;21.57;6.20;;;;;;;;;;5016464;28;20645;-67
2024/01/23 12:15:39;;;;;;;17.60;3.67;;;;;;;;;;5015928;28;20184;-67
2024/01/23 12:18:05;;;;;;;12.13;3.27;;;;;;;;;;5015753;28;20618;-67
2024/01/23 12:20:31;;;;;;;13.47;3.63;;;;;;;;;;4998113;28;20184;-67
2024/01/23 12:22:57;;;;;;;15.20;4.10;;;;;;;;;;5015638;28;20190;-65
2024/01/23 12:25:23;;;;;;;27.40;6.07;;;;;;;;;;5015478;28;20196;-67
2024/01/23 12:27:49;;;;;;;18.03;5.23;;;;;;;;;;4997792;28;20191;-68
2024/01/23 12:30:15;;;;;;;21.70;4.90;;;;;;;;;;5016585;28;20615;-68
2024/01/23 12:32:47;;;;;;;15.10;4.10;;;;;;;;;;4998227;28;20657;-67
2024/01/23 12:35:13;;;;;;;24.77;4.97;;;;;;;;;;5015616;28;20535;-67
2024/01/23 12:37:40;;;;;;;12.63;4.20;;;;;;;;;;4998180;28;20187;-65
2024/01/23 12:40:09;;;;;;;22.17;6.17;;;;;;;;;;5015568;28;20176;-67
2024/01/23 12:42:37;;;;;;;27.70;9.30;;;;;;;;;;5015535;28;20233;-68
2024/01/23 12:45:04;;;;;;;14.63;5.17;;;;;;;;;;4998332;28;20204;-65
2024/01/23 12:47:30;;;;;;;13.23;4.23;;;;;;;;;;4998196;28;20180;-68
2024/01/23 12:49:58;;;;;;;14.13;5.50;;;;;;;;;;5002213;28;20347;-67
2024/01/23 12:52:24;;;;;;;23.43;4.63;;;;;;;;;;5024456;28;20226;-66
2024/01/23 12:54:53;;;;;;;13.93;3.70;;;;;;;;;;5022676;28;20180;-65
2024/01/23 12:57:19;;;;;;;15.93;4.53;;;;;;;;;;5022549;28;20636;-65
2024/01/23 12:59:45;;;;;;;21.70;5.23;;;;;;;;;;5019645;28;20231;-66
2024/01/23 13:02:11;;;;;;;21.03;4.87;;;;;;;;;;4998531;28;20179;-66
2024/01/23 13:04:37;;;;;;;21.70;5.40;;;;;;;;;;5015620;28;20206;-67
2024/01/23 13:07:03;;;;;;;19.40;5.03;;;;;;;;;;5015126;28;20690;-68
2024/01/23 13:09:29;;;;;;;18.90;5.43;;;;;;;;;;5015277;28;20200;-66
2024/01/23 13:11:55;;;;;;;24.87;5.33;;;;;;;;;;5015312;28;20183;-67
2024/01/23 13:14:24;;;;;;;15.43;3.80;;;;;;;;;;4997415;28;20187;-69
2024/01/23 13:16:50;;;;;;;22.57;4.83;;;;;;;;;;4997838;28;20180;-66
2024/01/23 13:19:16;;;;;;;18.97;5.50;;;;;;;;;;4996174;28;20204;-65
2024/01/23 13:21:42;;;;;;;19.37;5.30;;;;;;;;;;5014477;28;20646;-67
2024/01/23 13:24:08;;;;;;;21.00;5.17;;;;;;;;;;4996769;28;20207;-64
2024/01/23 13:26:34;;;;;;;20.23;4.63;;;;;;;;;;4996663;28;20271;-67
2024/01/23 13:29:00;;;;;;;21.00;4.60;;;;;;;;;;4996906;28;20211;-67
2024/01/23 13:31:28;;;;;;;22.63;5.57;;;;;;;;;;4996571;28;20180;-67
2024/01/23 13:33:53;;;;;;;22.73;5.77;;;;;;;;;;5014469;28;20310;-66
2024/01/23 13:36:19;;;;;;;19.70;6.33;;;;;;;;;;5014128;28;20211;-66
2024/01/23 13:38:46;;;;;;;18.47;4.60;;;;;;;;;;5014231;28;20199;-66
2024/01/23 13:41:12;;;;;;;22.77;5.97;;;;;;;;;;4997567;28;20270;-65
2024/01/23 13:43:38;;;;;;;25.23;4.87;;;;;;;;;;5015885;28;20291;-66
2024/01/23 13:46:04;;;;;;;23.67;4.80;;;;;;;;;;5015691;28;20710;-66
2024/01/23 13:48:30;;;;;;;21.03;5.13;;;;;;;;;;5016673;28;20681;-64
2024/01/23 13:50:56;;;;;;;24.90;5.20;;;;;;;;;;4998348;28;20191;-67
2024/01/23 13:53:22;;;;;;;22.97;4.47;;;;;;;;;;5015749;28;20274;-65
2024/01/23 13:55:48;;;;;;;27.90;6.00;;;;;;;;;;5015331;28;20190;-66
2024/01/23 13:58:14;;;;;;;18.67;5.00;;;;;;;;;;5015297;28;20228;-67
2024/01/23 14:00:40;;;;;;;23.30;4.80;;;;;;;;;;4996279;28;20230;-67
2024/01/23 14:03:06;;;;;;;24.63;5.57;;;;;;;;;;4996063;28;20176;-66
2024/01/23 14:05:32;;;;;;;30.60;5.93;;;;;;;;;;4995945;28;20592;-67
2024/01/23 14:07:59;;;;;;;21.90;5.43;;;;;;;;;;5013605;28;20222;-66
2024/01/23 14:10:25;;;;;;;29.90;7.27;;;;;;;;;;4996283;28;20186;-66
2024/01/23 14:12:51;;;;;;;16.90;3.97;;;;;;;;;;4996137;28;20180;-67
2024/01/23 14:15:18;;;;;;;24.57;5.80;;;;;;;;;;5013814;28;20207;-68
2024/01/23 14:17:44;;;;;;;18.17;3.83;;;;;;;;;;5013814;28;20184;-64
2024/01/23 14:20:12;;;;;;;23.90;5.47;;;;;;;;;;4996433;28;20537;-66
2024/01/23 14:22:38;;;;;;;23.03;5.47;;;;;;;;;;5014511;28;20179;-65
2024/01/23 14:25:06;;;;;;;25.47;5.03;;;;;;;;;;4996150;28;20208;-67
2024/01/23 14:27:32;;;;;;;21.70;5.07;;;;;;;;;;5013549;28;20168;-68